createdAt,value
2024-05-09T00:00:42.551Z,101458.53
2024-05-09T00:03:11.012Z,101448.13
2024-05-09T00:05:45.212Z,101447.25
2024-05-09T00:08:12.642Z,101465.81
2024-05-09T00:10:40.823Z,101443.88
2024-05-09T00:13:09.247Z,101443.03
2024-05-09T00:15:37.029Z,101448.34
2024-05-09T00:18:05.302Z,101446.59
2024-05-09T00:20:38.376Z,101452.88
2024-05-09T00:23:13.578Z,101455.56
2024-05-09T00:25:44.767Z,101445.03
2024-05-09T00:28:12.476Z,101458.22
2024-05-09T00:30:39.939Z,101450.44
2024-05-09T00:33:09.155Z,101454.03
2024-05-09T00:35:37.680Z,101454.94
2024-05-09T00:38:05.115Z,101454.06
2024-05-09T00:40:40.095Z,101474.28
2024-05-09T00:43:13.551Z,101469.84
2024-05-09T00:45:42.704Z,101469.00
2024-05-09T00:48:13.496Z,101465.50
2024-05-09T00:50:44.131Z,101458.50
2024-05-09T00:53:14.181Z,101456.91
2024-05-09T00:55:41.818Z,101450.94
2024-05-09T00:58:11.962Z,101465.91
2024-05-09T01:00:41.127Z,101451.94
2024-05-09T01:03:11.821Z,101469.41
2024-05-09T01:05:41.315Z,101462.38
2024-05-09T01:08:09.246Z,101458.88
2024-05-09T01:10:37.311Z,101455.38
2024-05-09T01:13:05.332Z,101454.56
2024-05-09T01:15:33.954Z,101454.66
2024-05-09T01:18:04.342Z,101459.94
2024-05-09T01:20:40.494Z,101451.13
2024-05-09T01:23:11.971Z,101445.94
2024-05-09T01:25:39.734Z,101457.38
2024-05-09T01:28:07.257Z,101462.69
2024-05-09T01:30:37.243Z,101456.53
2024-05-09T01:33:07.382Z,101459.16
2024-05-09T01:35:36.497Z,101458.25
2024-05-09T01:38:03.973Z,101458.28
2024-05-09T01:40:37.696Z,101449.50
2024-05-09T01:43:07.995Z,101448.63
2024-05-09T01:45:35.417Z,101458.28
2024-05-09T01:48:05.472Z,101453.09
2024-05-09T01:50:38.664Z,101461.84
2024-05-09T01:53:10.387Z,101454.00
2024-05-09T01:55:37.731Z,101454.00
2024-05-09T01:58:04.942Z,101447.00
2024-05-09T02:00:38.877Z,101446.09
2024-05-09T02:03:16.228Z,101431.28
2024-05-09T02:05:46.593Z,101444.44
2024-05-09T02:08:15.593Z,101443.53
2024-05-09T02:10:47.630Z,101442.69
2024-05-09T02:13:15.836Z,101453.19
2024-05-09T02:15:43.013Z,101444.44
2024-05-09T02:18:10.796Z,101447.94
2024-05-09T02:20:40.646Z,101438.31
2024-05-09T02:23:09.171Z,101448.81
2024-05-09T02:25:37.056Z,101437.47
2024-05-09T02:28:04.207Z,101441.81
2024-05-09T02:30:39.692Z,101446.19
2024-05-09T02:33:13.552Z,101437.47
2024-05-09T02:35:43.019Z,101440.94
2024-05-09T02:38:11.075Z,101443.56
2024-05-09T02:40:39.638Z,101428.69
2024-05-09T02:43:08.564Z,101416.47
2024-05-09T02:45:36.891Z,101437.47
2024-05-09T02:48:04.421Z,101452.31
2024-05-09T02:50:37.865Z,101440.94
2024-05-09T02:53:14.015Z,101440.09
2024-05-09T02:55:42.416Z,101438.31
2024-05-09T02:58:11.328Z,101456.66
2024-05-09T03:00:41.410Z,101442.69
2024-05-09T03:03:14.803Z,101442.69
2024-05-09T03:05:44.127Z,101451.44
2024-05-09T03:08:11.678Z,101455.81
2024-05-09T03:10:39.581Z,101458.34
2024-05-09T03:13:07.437Z,101453.97
2024-05-09T03:15:34.440Z,101453.03
2024-05-09T03:18:03.602Z,101457.44
2024-05-09T03:20:34.696Z,101461.78
2024-05-09T03:23:04.524Z,101458.28
2024-05-09T03:25:32.045Z,101463.47
2024-05-09T03:27:59.439Z,101443.41
2024-05-09T03:30:38.380Z,101448.66
2024-05-09T03:33:15.377Z,101465.25
2024-05-09T03:35:44.088Z,101468.75
2024-05-09T03:38:11.211Z,101465.25
2024-05-09T03:40:44.952Z,101460.75
2024-05-09T03:43:13.171Z,101457.28
2024-05-09T03:45:41.960Z,101457.25
2024-05-09T03:48:09.176Z,101446.69
2024-05-09T03:50:37.463Z,101455.50
2024-05-09T03:53:05.218Z,101447.66
2024-05-09T03:55:32.921Z,101452.91
2024-05-09T03:58:00.047Z,101462.44
2024-05-09T04:00:35.428Z,101454.59
2024-05-09T04:03:11.122Z,101462.41
2024-05-09T04:05:42.406Z,101455.28
2024-05-09T04:08:10.994Z,101458.63
2024-05-09T04:10:38.345Z,101458.69
2024-05-09T04:13:08.207Z,101454.34
2024-05-09T04:15:35.866Z,101461.31
2024-05-09T04:18:03.209Z,101449.88
2024-05-09T04:20:37.757Z,101470.13
2024-05-09T04:23:11.394Z,101469.28
2024-05-09T04:25:40.814Z,101473.59
2024-05-09T04:28:08.100Z,101470.91
2024-05-09T04:30:39.217Z,101475.38
2024-05-09T04:33:10.681Z,101470.25
2024-05-09T04:35:39.705Z,101481.66
2024-05-09T04:38:07.848Z,101485.91
2024-05-09T04:40:36.951Z,101474.44
2024-05-09T04:43:06.230Z,101472.72
2024-05-09T04:45:33.917Z,101483.34
2024-05-09T04:48:01.731Z,101495.59
2024-05-09T04:50:35.798Z,101487.72
2024-05-09T04:53:11.362Z,101480.72
2024-05-09T04:55:40.036Z,101470.16
2024-05-09T04:58:14.326Z,101473.47
2024-05-09T05:00:43.032Z,101491.09
2024-05-09T05:03:14.071Z,101496.44
2024-05-09T05:05:43.996Z,101490.19
2024-05-09T05:08:13.503Z,101498.97
2024-05-09T05:10:41.487Z,101511.28
2024-05-09T05:13:23.735Z,101496.31
2024-05-09T05:15:57.417Z,101499.13
2024-05-09T05:18:26.725Z,101501.72
2024-05-09T05:20:55.786Z,101500.84
2024-05-09T05:23:23.530Z,101501.81
2024-05-09T05:25:55.478Z,101502.78
2024-05-09T05:28:23.107Z,101508.06
2024-05-09T05:30:50.315Z,101508.16
2024-05-09T05:33:22.544Z,101504.66
2024-05-09T05:35:50.136Z,101505.56
2024-05-09T05:38:17.213Z,101501.19
2024-05-09T05:40:44.591Z,101503.03
2024-05-09T05:43:18.586Z,101501.31
2024-05-09T05:45:46.178Z,101513.56
2024-05-09T05:48:16.544Z,101516.22
2024-05-09T05:50:45.810Z,101523.22
2024-05-09T05:53:13.016Z,101525.84
2024-05-09T05:55:43.351Z,101534.59
2024-05-09T05:58:11.254Z,101527.63
2024-05-09T06:00:40.534Z,101528.50
2024-05-09T06:03:11.699Z,101518.84
2024-05-09T06:05:48.185Z,101529.34
2024-05-09T06:08:15.238Z,101518.81
2024-05-09T06:10:42.639Z,101517.06
2024-05-09T06:13:13.600Z,101525.81
2024-05-09T06:15:41.689Z,101523.16
2024-05-09T06:18:11.120Z,101518.75
2024-05-09T06:20:42.365Z,101511.72
2024-05-09T06:23:10.803Z,101528.34
2024-05-09T06:25:38.124Z,101503.84
2024-05-09T06:28:05.685Z,101518.69
2024-05-09T06:30:38.954Z,101516.84
2024-05-09T06:33:10.444Z,101498.44
2024-05-09T06:35:38.989Z,101496.66
2024-05-09T06:38:08.714Z,101518.50
2024-05-09T06:40:42.452Z,101522.84
2024-05-09T06:43:17.707Z,101517.53
2024-05-09T06:45:50.164Z,101518.28
2024-05-09T06:48:21.814Z,101507.75
2024-05-09T06:50:50.370Z,101514.66
2024-05-09T06:53:20.552Z,101513.66
2024-05-09T06:55:47.843Z,101496.13
2024-05-09T06:58:15.902Z,101491.63
2024-05-09T07:00:43.010Z,101495.97
2024-05-09T07:03:13.431Z,101521.25
2024-05-09T07:05:42.846Z,101513.31
2024-05-09T07:08:10.845Z,101509.72
2024-05-09T07:10:38.391Z,101521.03
2024-05-09T07:13:14.490Z,101520.03
2024-05-09T07:15:42.112Z,101507.75
2024-05-09T07:18:17.903Z,101515.44
2024-05-09T07:20:46.894Z,101515.34
2024-05-09T07:23:15.263Z,101515.28
2024-05-09T07:25:43.172Z,101516.94
2024-05-09T07:28:18.057Z,101508.97
2024-05-09T07:30:45.206Z,101500.06
2024-05-09T07:33:21.177Z,101510.44
2024-05-09T07:35:50.769Z,101504.16
2024-05-09T07:38:17.879Z,101495.28
2024-05-09T07:40:45.063Z,101491.63
2024-05-09T07:43:13.034Z,101499.31
2024-05-09T07:45:49.910Z,101497.38
2024-05-09T07:52:38.606Z,101495.25
2024-05-09T07:53:47.242Z,101479.38
2024-05-09T07:56:21.067Z,101479.16
2024-05-09T07:58:51.357Z,101487.72
2024-05-09T08:01:19.364Z,101480.59
2024-05-09T08:03:49.166Z,101469.94
2024-05-09T08:06:16.451Z,101474.19
2024-05-09T08:08:45.575Z,101474.84
2024-05-09T08:11:13.021Z,101457.25
2024-05-09T08:13:40.133Z,101470.19
2024-05-09T08:16:09.340Z,101476.88
2024-05-09T08:18:36.724Z,101482.00
2024-05-09T08:21:04.032Z,101471.19
2024-05-09T08:23:31.333Z,101444.09
2024-05-09T08:25:58.541Z,101462.13
2024-05-09T08:28:25.672Z,101447.09
2024-05-09T08:30:52.935Z,101462.69
2024-05-09T08:33:20.201Z,101470.31
2024-05-09T08:35:47.665Z,101454.31
2024-05-09T08:38:14.806Z,101451.59
2024-05-09T08:40:42.279Z,101462.75
2024-05-09T08:43:11.868Z,101458.94
2024-05-09T08:45:44.741Z,101454.41
2024-05-09T08:48:15.472Z,101448.91
2024-05-09T08:50:44.634Z,101436.22
2024-05-09T08:53:12.664Z,101448.16
2024-05-09T08:55:43.025Z,101439.34
2024-05-09T08:58:16.679Z,101444.19
2024-05-09T09:00:45.648Z,101438.72
2024-05-09T09:03:19.908Z,101438.56
2024-05-09T09:06:05.452Z,101428.63
2024-05-09T09:08:32.721Z,101440.69
2024-05-09T09:11:00.508Z,101436.28
2024-05-09T09:13:27.886Z,101435.28
2024-05-09T09:15:58.707Z,101412.84
2024-05-09T09:18:26.927Z,101403.59
2024-05-09T09:20:55.385Z,101436.63
2024-05-09T09:23:22.696Z,101406.94
2024-05-09T09:25:59.830Z,101407.28
2024-05-09T09:28:26.976Z,101406.66
2024-05-09T09:31:01.048Z,101413.34
2024-05-09T09:33:33.128Z,101405.97
2024-05-09T09:36:03.798Z,101396.59
2024-05-09T09:38:31.580Z,101420.38
2024-05-09T09:41:00.040Z,101392.31
2024-05-09T09:43:27.837Z,101412.81
2024-05-09T09:45:59.840Z,101412.34
2024-05-09T09:48:27.637Z,101406.19
2024-05-09T09:50:55.475Z,101407.84
2024-05-09T09:53:25.857Z,101377.25
2024-05-09T09:55:53.540Z,101404.63
2024-05-09T09:58:21.406Z,101395.78
2024-05-09T10:00:48.782Z,101402.41
2024-05-09T10:03:16.219Z,101394.69
2024-05-09T10:05:46.376Z,101379.38
2024-05-09T10:08:16.007Z,101398.91
2024-05-09T10:10:46.757Z,101375.75
2024-05-09T10:13:14.136Z,101400.13
2024-05-09T10:15:51.532Z,101393.47
2024-05-09T10:18:27.055Z,101388.72
2024-05-09T10:20:56.526Z,101366.41
2024-05-09T10:23:27.806Z,101395.88
2024-05-09T10:25:58.364Z,101369.38
2024-05-09T10:28:27.414Z,101385.41
2024-05-09T10:31:07.145Z,101389.44
2024-05-09T10:33:38.873Z,101385.50
2024-05-09T10:36:22.593Z,101359.03
2024-05-09T10:38:51.547Z,101385.91
2024-05-09T10:41:19.727Z,101378.66
2024-05-09T10:43:47.881Z,101370.81
2024-05-09T10:46:15.870Z,101379.19
2024-05-09T10:48:44.272Z,101350.78
2024-05-09T10:51:11.963Z,101355.34
2024-05-09T10:53:46.060Z,101340.75
2024-05-09T10:56:14.608Z,101339.38
2024-05-09T10:58:42.080Z,101356.97
2024-05-09T11:01:10.684Z,101334.97
2024-05-09T11:03:39.377Z,101354.06
2024-05-09T11:06:07.607Z,101350.88
2024-05-09T11:08:35.466Z,101354.28
2024-05-09T11:11:06.581Z,101354.94
2024-05-09T11:13:37.537Z,101332.03
2024-05-09T11:16:06.049Z,101328.25
2024-05-09T11:18:37.935Z,101346.13
2024-05-09T11:21:14.928Z,101360.75
2024-05-09T11:23:42.071Z,101350.84
2024-05-09T11:26:10.919Z,101342.28
2024-05-09T11:28:38.332Z,101355.38
2024-05-09T11:31:10.392Z,101350.22
2024-05-09T11:33:39.568Z,101342.19
2024-05-09T11:36:08.805Z,101321.72
2024-05-09T11:38:35.884Z,101318.16
2024-05-09T11:41:03.925Z,101318.84
2024-05-09T11:43:31.727Z,101336.50
2024-05-09T11:46:00.436Z,101330.75
2024-05-09T11:48:28.664Z,101326.47
2024-05-09T11:50:56.729Z,101315.91
2024-05-09T11:53:24.381Z,101312.16
2024-05-09T11:55:51.486Z,101307.19
2024-05-09T11:58:19.250Z,101310.56
2024-05-09T12:00:47.090Z,101303.16
2024-05-09T12:03:14.743Z,101301.84
2024-05-09T12:05:42.122Z,101304.63
2024-05-09T12:08:09.468Z,101297.31
2024-05-09T12:10:37.149Z,101297.97
2024-05-09T12:13:06.884Z,101284.28
2024-05-09T12:15:38.598Z,101294.34
2024-05-09T12:18:07.565Z,101286.66
2024-05-09T12:20:38.539Z,101280.31
2024-05-09T12:23:09.292Z,101283.56
2024-05-09T12:25:38.513Z,101284.81
2024-05-09T12:28:06.434Z,101271.75
2024-05-09T12:30:38.199Z,101260.88
2024-05-09T12:33:08.908Z,101261.34
2024-05-09T12:35:36.478Z,101247.63
2024-05-09T12:38:06.455Z,101264.38
2024-05-09T12:40:37.897Z,101257.06
2024-05-09T12:43:08.598Z,101256.31
2024-05-09T12:45:37.481Z,101247.81
2024-05-09T12:48:07.527Z,101241.56
2024-05-09T12:50:35.385Z,101242.91
2024-05-09T12:53:03.940Z,101241.94
2024-05-09T12:55:43.864Z,101231.59
2024-05-09T12:58:17.152Z,101231.84
2024-05-09T13:00:45.256Z,101226.59
2024-05-09T13:03:15.711Z,101226.41
2024-05-09T13:05:47.055Z,101223.81
2024-05-09T13:08:14.534Z,101217.41
2024-05-09T13:10:42.170Z,101211.03
2024-05-09T13:13:12.873Z,101213.25
2024-05-09T13:15:41.605Z,101221.81
2024-05-09T13:18:09.216Z,101209.66
2024-05-09T13:20:37.215Z,101198.72
2024-05-09T13:23:06.483Z,101188.31
2024-05-09T13:25:35.297Z,101201.28
2024-05-09T13:28:03.460Z,101195.91
2024-05-09T13:30:39.023Z,101193.94
2024-05-09T13:33:15.703Z,101193.78
2024-05-09T13:35:47.259Z,101186.97
2024-05-09T13:38:21.743Z,101175.50
2024-05-09T13:40:50.794Z,101170.53
2024-05-09T13:43:18.636Z,101152.28
2024-05-09T13:45:46.143Z,101160.25
2024-05-09T13:48:13.557Z,101174.34
2024-05-09T13:50:40.871Z,101167.19
2024-05-09T13:53:08.867Z,101157.34
2024-05-09T13:55:38.468Z,101152.25
2024-05-09T13:58:06.307Z,101160.88
2024-05-09T14:00:44.041Z,101152.25
2024-05-09T14:03:16.650Z,101146.44
2024-05-09T14:05:45.499Z,101148.09
2024-05-09T14:08:15.213Z,101119.91
2024-05-09T14:10:47.250Z,101138.88
2024-05-09T14:13:15.093Z,101139.44
2024-05-09T14:15:42.277Z,101135.97
2024-05-09T14:18:13.086Z,101123.41
2024-05-09T14:20:41.752Z,101123.78
2024-05-09T14:23:08.980Z,101111.47
2024-05-09T14:25:41.785Z,101120.63
2024-05-09T14:28:13.858Z,101116.56
2024-05-09T14:30:41.853Z,101110.84
2024-05-09T14:33:09.692Z,101100.97
2024-05-09T14:35:38.498Z,101098.03
2024-05-09T14:38:06.626Z,101102.41
2024-05-09T14:40:41.647Z,101095.06
2024-05-09T14:43:12.494Z,101106.88
2024-05-09T14:45:40.153Z,101094.69
2024-05-09T14:48:08.081Z,101085.06
2024-05-09T14:50:38.503Z,101088.66
2024-05-09T14:53:08.271Z,101082.41
2024-05-09T14:55:40.603Z,101090.63
2024-05-09T14:58:09.763Z,101073.97
2024-05-09T15:00:46.419Z,101084.16
2024-05-09T15:03:21.355Z,101079.81
2024-05-09T15:05:50.077Z,101082.84
2024-05-09T15:08:18.664Z,101079.19
2024-05-09T15:10:52.256Z,101053.81
2024-05-09T15:13:20.869Z,101075.88
2024-05-09T15:15:48.696Z,101048.13
2024-05-09T15:18:16.490Z,101045.75
2024-05-09T15:20:44.778Z,101053.50
2024-05-09T15:23:12.026Z,101046.97
2024-05-09T15:25:39.042Z,101054.78
2024-05-09T15:28:07.834Z,101039.91
2024-05-09T15:30:35.487Z,101035.44
2024-05-09T15:33:06.920Z,101032.91
2024-05-09T15:35:38.097Z,101028.13
2024-05-09T15:38:05.307Z,101041.03
2024-05-09T15:40:39.043Z,101041.75
2024-05-09T15:43:09.605Z,101038.13
2024-05-09T15:45:41.574Z,101038.13
2024-05-09T15:48:09.865Z,101037.16
2024-05-09T15:50:40.776Z,101030.09
2024-05-09T15:53:11.355Z,101022.69
2024-05-09T15:55:39.330Z,101030.47
2024-05-09T15:58:09.694Z,101013.56
2024-05-09T16:00:40.785Z,101033.34
2024-05-09T16:03:14.515Z,101024.97
2024-05-09T16:05:46.497Z,101034.47
2024-05-09T16:08:14.658Z,101022.34
2024-05-09T16:10:48.103Z,101023.72
2024-05-09T16:13:16.891Z,101021.09
2024-05-09T16:15:44.809Z,101023.50
2024-05-09T16:18:12.388Z,101014.72
2024-05-09T16:20:42.396Z,101024.00
2024-05-09T16:23:11.044Z,101017.50
2024-05-09T16:25:39.448Z,101009.19
2024-05-09T16:28:09.960Z,100996.78
2024-05-09T16:30:41.417Z,101015.69
2024-05-09T16:33:09.547Z,101020.75
2024-05-09T16:35:37.502Z,101025.72
2024-05-09T16:38:05.906Z,101011.66
2024-05-09T16:40:38.193Z,101012.44
2024-05-09T16:43:12.154Z,101009.91
2024-05-09T16:45:40.962Z,101006.94
2024-05-09T16:48:08.912Z,101021.63
2024-05-09T16:50:36.831Z,100997.25
2024-05-09T16:53:05.867Z,101000.50
2024-05-09T16:55:34.015Z,101010.63
2024-05-09T16:58:03.567Z,101010.66
2024-05-09T17:00:39.086Z,101011.97
2024-05-09T17:03:12.753Z,101004.41
2024-05-09T17:05:41.448Z,101006.59
2024-05-09T17:08:09.027Z,101002.97
2024-05-09T17:10:36.649Z,101003.84
2024-05-09T17:13:05.535Z,101007.19
2024-05-09T17:15:34.138Z,100995.56
2024-05-09T17:18:01.861Z,101007.19
2024-05-09T17:20:33.940Z,101011.28
2024-05-09T17:23:05.682Z,101005.25
2024-05-09T17:25:33.685Z,101016.41
2024-05-09T17:28:07.528Z,101014.19
2024-05-09T17:30:38.189Z,101009.28
2024-05-09T17:33:08.525Z,101015.31
2024-05-09T17:35:36.760Z,101020.84
2024-05-09T17:38:08.640Z,101019.84
2024-05-09T17:40:37.759Z,101019.97
2024-05-09T17:43:08.663Z,101018.66
2024-05-09T17:45:38.508Z,101012.81
2024-05-09T17:48:06.697Z,101020.38
2024-05-09T17:50:36.539Z,101021.25
2024-05-09T17:53:08.471Z,101025.09
2024-05-09T17:55:36.158Z,101018.22
2024-05-09T17:58:04.451Z,101028.91
2024-05-09T18:00:38.572Z,101025.97
2024-05-09T18:03:12.073Z,101037.78
2024-05-09T18:05:41.336Z,101028.88
2024-05-09T18:08:08.902Z,101033.44
2024-05-09T18:10:39.009Z,101031.59
2024-05-09T18:13:08.475Z,101020.03
2024-05-09T18:15:36.030Z,101025.38
2024-05-09T18:18:03.959Z,101015.94
2024-05-09T18:20:40.211Z,101035.53
2024-05-09T18:23:11.664Z,101035.06
2024-05-09T18:25:38.866Z,101029.91
2024-05-09T18:28:07.034Z,101031.34
2024-05-09T18:30:36.308Z,101042.97
2024-05-09T18:33:07.019Z,101040.94
2024-05-09T18:35:36.124Z,101036.22
2024-05-09T18:38:05.521Z,101039.75
2024-05-09T18:40:36.670Z,101041.28
2024-05-09T18:43:07.497Z,101036.16
2024-05-09T18:45:38.039Z,101032.66
2024-05-09T18:48:07.323Z,101040.47
2024-05-09T18:50:38.947Z,101048.66
2024-05-09T18:53:10.369Z,101056.31
2024-05-09T18:55:38.259Z,101056.91
2024-05-09T18:58:05.697Z,101052.19
2024-05-09T19:00:36.856Z,101057.75
2024-05-09T19:03:09.462Z,101066.06
2024-05-09T19:05:40.275Z,101052.00
2024-05-09T19:08:08.189Z,101055.50
2024-05-09T19:10:37.419Z,101062.50
2024-05-09T19:13:09.153Z,101057.53
2024-05-09T19:15:40.155Z,101059.75
2024-05-09T19:18:09.727Z,101061.53
2024-05-09T19:20:37.779Z,101073.69
2024-05-09T19:23:07.036Z,101058.00
2024-05-09T19:25:36.062Z,101079.19
2024-05-09T19:28:04.466Z,101074.91
2024-05-09T19:30:40.188Z,101080.41
2024-05-09T19:33:11.764Z,101074.88
2024-05-09T19:35:40.090Z,101072.13
2024-05-09T19:38:08.662Z,101084.31
2024-05-09T19:40:38.653Z,101057.09
2024-05-09T19:43:06.564Z,101081.16
2024-05-09T19:45:35.277Z,101077.44
2024-05-09T19:48:04.143Z,101068.59
2024-05-09T19:50:39.826Z,101044.50
2024-05-09T19:53:14.053Z,101047.53
2024-05-09T19:55:42.099Z,101066.41
2024-05-09T19:58:10.454Z,101070.56
2024-05-09T20:00:41.616Z,101066.03
2024-05-09T20:03:15.549Z,101070.31
2024-05-09T20:05:47.076Z,101048.94
2024-05-09T20:08:14.732Z,101060.78
2024-05-09T20:10:41.982Z,101061.25
2024-05-09T20:13:09.371Z,101089.66
2024-05-09T20:15:37.831Z,101075.53
2024-05-09T20:18:08.786Z,101081.25
2024-05-09T20:20:41.999Z,101080.06
2024-05-09T20:23:11.833Z,101089.13
2024-05-09T20:25:39.458Z,101080.09
2024-05-09T20:28:07.688Z,101090.25
2024-05-09T20:30:38.399Z,101079.03
2024-05-09T20:33:08.868Z,101093.28
2024-05-09T20:35:37.010Z,101091.91
2024-05-09T20:38:04.886Z,101103.28
2024-05-09T20:40:36.237Z,101072.63
2024-05-09T20:43:07.493Z,101089.53
2024-05-09T20:45:35.261Z,101078.97
2024-05-09T20:48:02.873Z,101077.50
2024-05-09T20:50:38.981Z,101088.00
2024-05-09T20:53:13.853Z,101086.47
2024-05-09T20:55:43.506Z,101091.50
2024-05-09T20:58:11.157Z,101091.72
2024-05-09T21:00:42.308Z,101094.38
2024-05-09T21:03:14.947Z,101070.22
2024-05-09T21:05:43.538Z,101084.63
2024-05-09T21:08:10.794Z,101087.78
2024-05-09T21:10:40.549Z,101090.53
2024-05-09T21:13:07.998Z,101097.94
2024-05-09T21:15:35.987Z,101080.34
2024-05-09T21:18:04.128Z,101094.13
2024-05-09T21:20:34.709Z,101087.25
2024-05-09T21:23:02.648Z,101085.13
2024-05-09T21:25:30.864Z,101070.16
2024-05-09T21:27:58.543Z,101091.41
2024-05-09T21:30:32.660Z,101088.19
2024-05-09T21:33:10.938Z,101092.88
2024-05-09T21:35:39.999Z,101088.00
2024-05-09T21:38:07.690Z,101093.53
2024-05-09T21:40:36.697Z,101078.81
2024-05-09T21:43:05.619Z,101093.88
2024-05-09T21:45:34.035Z,101092.69
2024-05-09T21:48:03.979Z,101092.69
2024-05-09T21:50:37.194Z,101093.13
2024-05-09T21:53:07.874Z,101096.81
2024-05-09T21:55:35.166Z,101087.00
2024-05-09T21:58:02.902Z,101089.97
2024-05-09T22:00:36.140Z,101059.38
2024-05-09T22:03:09.492Z,101093.88
2024-05-09T22:05:38.302Z,101082.66
2024-05-09T22:08:06.000Z,101088.63
2024-05-09T22:10:35.524Z,101088.00
2024-05-09T22:13:05.755Z,101098.47
2024-05-09T22:15:36.190Z,101096.06
2024-05-09T22:18:05.259Z,101091.47
2024-05-09T22:20:37.825Z,101095.00
2024-05-09T22:23:07.224Z,101096.44
2024-05-09T22:25:34.569Z,101097.22
2024-05-09T22:28:02.725Z,101091.19
2024-05-09T22:33:00.128Z,101091.59
2024-05-09T22:35:27.966Z,101086.38
2024-05-09T22:37:55.439Z,101103.25
2024-05-09T22:40:32.151Z,101098.94
2024-05-09T22:43:06.090Z,101098.78
2024-05-09T22:45:33.402Z,101098.69
2024-05-09T22:48:00.756Z,101088.63
2024-05-09T22:50:33.143Z,101079.13
2024-05-09T22:53:01.113Z,101092.22
2024-05-09T22:55:28.691Z,101085.69
2024-05-09T22:57:56.230Z,101096.50
2024-05-09T23:00:31.322Z,101085.63
2024-05-09T23:03:03.774Z,101095.59
2024-05-09T23:05:32.314Z,101099.84
2024-05-09T23:08:01.542Z,101100.91
2024-05-09T23:10:36.116Z,101096.91
2024-05-09T23:13:06.781Z,101107.56
2024-05-09T23:15:34.774Z,101104.91
2024-05-09T23:18:01.990Z,101084.06
2024-05-09T23:20:36.389Z,101080.44
2024-05-09T23:23:07.147Z,101094.41
2024-05-09T23:25:34.628Z,101086.81
2024-05-09T23:28:01.967Z,101090.56
2024-05-09T23:30:37.394Z,101088.34
2024-05-09T23:33:08.220Z,101086.13
2024-05-09T23:35:35.708Z,101083.84
2024-05-09T23:38:03.714Z,101087.50
2024-05-09T23:40:38.217Z,101094.59
2024-05-09T23:43:08.843Z,101085.06
2024-05-09T23:45:36.507Z,101094.59
2024-05-09T23:48:04.180Z,101082.53
2024-05-09T23:50:35.959Z,101087.03
2024-05-09T23:53:06.952Z,101084.59
2024-05-09T23:55:35.185Z,101098.97
2024-05-09T23:58:02.312Z,101088.34
